createdAt,value
2019-06-20T00:01:19.912Z,96.40
2019-06-20T00:03:50.030Z,95.90
2019-06-20T00:06:20.119Z,95.80
2019-06-20T00:08:50.262Z,95.80
2019-06-20T00:11:20.518Z,94.50
2019-06-20T00:13:50.611Z,95.80
2019-06-20T00:16:20.741Z,94.30
2019-06-20T00:18:50.876Z,95.20
2019-06-20T00:21:20.962Z,93.70
2019-06-20T00:23:51.072Z,93.80
2019-06-20T00:26:21.231Z,94.50
2019-06-20T00:28:51.353Z,93.60
2019-06-20T00:31:21.452Z,94.00
2019-06-20T00:33:51.594Z,94.10
2019-06-20T00:36:21.652Z,94.30
2019-06-20T00:38:52.872Z,94.20
2019-06-20T00:41:23.511Z,92.70
2019-06-20T00:43:53.666Z,93.20
2019-06-20T00:46:23.892Z,93.80
2019-06-20T00:48:53.959Z,94.40
2019-06-20T00:51:24.078Z,93.50
2019-06-20T00:53:54.224Z,94.60
2019-06-20T00:56:24.391Z,93.20
2019-06-20T00:58:54.541Z,92.60
2019-06-20T01:01:24.773Z,92.10
2019-06-20T01:03:54.861Z,93.40
2019-06-20T01:06:24.981Z,93.50
2019-06-20T01:08:55.067Z,93.80
2019-06-20T01:11:26.456Z,93.20
2019-06-20T01:13:56.574Z,94.10
2019-06-20T01:16:26.685Z,95.20
2019-06-20T01:18:56.870Z,95.60
2019-06-20T01:21:26.990Z,93.50
2019-06-20T01:23:57.132Z,95.20
2019-06-20T01:26:28.110Z,93.00
2019-06-20T01:28:58.216Z,93.80
2019-06-20T01:31:29.544Z,95.30
2019-06-20T01:33:59.709Z,96.40
2019-06-20T01:36:29.831Z,94.30
2019-06-20T01:39:00.047Z,95.00
2019-06-20T01:41:30.131Z,97.00
2019-06-20T01:44:00.665Z,98.10
2019-06-20T01:46:31.252Z,97.80
2019-06-20T01:49:01.530Z,97.90
2019-06-20T01:51:31.611Z,98.10
2019-06-20T01:54:01.735Z,98.30
2019-06-20T01:56:31.877Z,98.70
2019-06-20T01:59:02.026Z,98.90
2019-06-20T02:01:32.193Z,99.10
2019-06-20T02:04:02.320Z,98.00
2019-06-20T02:06:32.391Z,97.60
2019-06-20T02:09:02.482Z,96.80
2019-06-20T02:11:32.618Z,96.70
2019-06-20T02:14:07.170Z,96.20
2019-06-20T02:16:34.594Z,96.80
2019-06-20T02:19:05.067Z,97.20
2019-06-20T02:21:35.208Z,97.80
2019-06-20T02:24:05.434Z,98.90
2019-06-20T02:26:35.523Z,98.60
2019-06-20T02:29:05.692Z,99.00
2019-06-20T02:31:35.843Z,98.00
2019-06-20T02:34:06.051Z,97.60
2019-06-20T02:36:36.165Z,96.50
2019-06-20T02:39:07.837Z,96.20
2019-06-20T02:41:38.148Z,96.00
2019-06-20T02:44:28.466Z,96.20
2019-06-20T02:46:41.328Z,96.90
2019-06-20T02:49:13.748Z,97.40
2019-06-20T02:51:44.273Z,97.70
2019-06-20T02:54:15.989Z,99.20
2019-06-20T02:56:46.147Z,99.70
2019-06-20T02:59:16.227Z,98.70
2019-06-20T03:01:49.958Z,97.40
2019-06-20T03:04:20.075Z,96.50
2019-06-20T03:06:50.162Z,97.30
2019-06-20T03:09:21.372Z,96.90
2019-06-20T03:11:51.498Z,96.90
2019-06-20T03:14:21.721Z,96.40
2019-06-20T03:16:51.874Z,95.80
2019-06-20T03:19:21.982Z,96.40
2019-06-20T03:21:52.102Z,96.70
2019-06-20T03:24:22.290Z,98.00
2019-06-20T03:26:52.383Z,96.60
2019-06-20T03:29:22.463Z,96.10
2019-06-20T03:31:52.579Z,95.70
2019-06-20T03:34:22.656Z,97.60
2019-06-20T03:36:53.538Z,95.80
2019-06-20T03:39:24.024Z,95.20
2019-06-20T03:41:54.277Z,97.10
2019-06-20T03:44:24.401Z,99.90
2019-06-20T03:46:54.498Z,99.90
2019-06-20T03:49:24.675Z,99.90
2019-06-20T03:51:54.796Z,99.90
2019-06-20T03:54:24.939Z,99.30
2019-06-20T03:57:33.800Z,97.20
2019-06-20T04:00:01.958Z,98.10
2019-06-20T04:02:32.186Z,99.30
2019-06-20T04:05:04.590Z,98.10
2019-06-20T04:07:34.721Z,96.80
2019-06-20T04:10:05.105Z,94.50
2019-06-20T04:12:35.321Z,97.90
2019-06-20T04:15:18.725Z,97.30
2019-06-20T04:17:37.701Z,97.80
2019-06-20T04:20:07.820Z,97.90
2019-06-20T04:22:37.952Z,98.50
2019-06-20T04:25:08.583Z,97.70
2019-06-20T04:27:38.756Z,94.60
2019-06-20T04:30:09.255Z,94.90
2019-06-20T04:32:39.358Z,94.70
2019-06-20T04:35:09.595Z,96.00
2019-06-20T04:37:39.731Z,95.70
2019-06-20T04:40:10.765Z,94.10
2019-06-20T04:42:41.308Z,94.40
2019-06-20T04:45:35.312Z,95.30
2019-06-20T04:48:00.850Z,95.00
2019-06-20T04:50:31.775Z,96.70
2019-06-20T04:53:01.904Z,97.60
2019-06-20T04:55:32.011Z,97.30
2019-06-20T04:58:02.144Z,96.30
2019-06-20T05:00:32.381Z,97.00
2019-06-20T05:03:02.845Z,96.00
2019-06-20T05:05:33.011Z,97.20
2019-06-20T05:08:04.371Z,97.60
2019-06-20T05:10:35.265Z,96.40
2019-06-20T05:13:06.179Z,94.40
2019-06-20T05:15:51.432Z,94.50
2019-06-20T05:18:08.164Z,95.40
2019-06-20T05:20:39.881Z,93.80
2019-06-20T05:23:10.006Z,94.30
2019-06-20T05:25:40.155Z,90.70
2019-06-20T05:28:10.446Z,94.00
2019-06-20T05:30:40.564Z,92.40
2019-06-20T05:33:10.683Z,92.40
2019-06-20T05:35:43.756Z,93.90
2019-06-20T05:38:14.161Z,93.10
2019-06-20T05:40:44.274Z,92.20
2019-06-20T05:43:14.415Z,90.90
2019-06-20T05:45:48.564Z,90.40
2019-06-20T05:48:16.333Z,89.10
2019-06-20T05:50:46.450Z,88.60
2019-06-20T05:53:16.579Z,88.00
2019-06-20T05:55:46.669Z,87.20
2019-06-20T05:58:16.795Z,88.50
2019-06-20T06:00:48.417Z,90.00
2019-06-20T06:03:19.001Z,87.00
2019-06-20T06:05:49.151Z,84.80
2019-06-20T06:08:19.242Z,85.40
2019-06-20T06:10:49.421Z,76.00
2019-06-20T06:13:19.489Z,80.20
2019-06-20T06:15:49.623Z,82.60
2019-06-20T06:18:19.717Z,76.00
2019-06-20T06:20:49.907Z,76.20
2019-06-20T06:23:20.008Z,73.70
2019-06-20T06:25:50.116Z,72.80
2019-06-20T06:28:20.250Z,75.20
2019-06-20T06:30:50.408Z,74.20
2019-06-20T06:33:20.517Z,75.90
2019-06-20T06:35:50.991Z,78.10
2019-06-20T06:38:22.503Z,79.70
2019-06-20T06:40:52.821Z,77.90
2019-06-20T06:43:22.968Z,77.10
2019-06-20T06:45:53.204Z,73.50
2019-06-20T06:48:23.717Z,73.90
2019-06-20T06:50:53.828Z,81.00
2019-06-20T06:53:24.559Z,82.70
2019-06-20T06:55:55.050Z,86.60
2019-06-20T06:58:25.193Z,86.10
2019-06-20T07:00:55.455Z,86.00
2019-06-20T07:03:25.790Z,85.60
2019-06-20T07:05:55.857Z,85.10
2019-06-20T07:08:26.544Z,85.80
2019-06-20T07:10:56.751Z,79.20
2019-06-20T07:13:27.036Z,79.10
2019-06-20T07:15:57.139Z,80.20
2019-06-20T07:18:27.389Z,87.10
2019-06-20T07:20:57.483Z,82.10
2019-06-20T07:23:27.850Z,80.10
2019-06-20T07:26:00.390Z,80.30
2019-06-20T07:28:30.597Z,81.50
2019-06-20T07:31:00.907Z,76.20
2019-06-20T07:33:31.029Z,79.80
2019-06-20T07:36:01.108Z,73.70
2019-06-20T07:38:31.625Z,79.80
2019-06-20T07:41:01.811Z,73.70
2019-06-20T07:43:31.919Z,77.40
2019-06-20T07:46:03.299Z,76.40
2019-06-20T07:48:33.541Z,69.10
2019-06-20T07:51:03.719Z,71.70
2019-06-20T07:53:33.894Z,73.80
2019-06-20T07:56:04.549Z,66.20
2019-06-20T07:58:34.777Z,63.80
2019-06-20T08:01:05.975Z,69.00
2019-06-20T08:03:36.120Z,68.40
2019-06-20T08:06:06.405Z,62.70
2019-06-20T08:08:38.289Z,69.30
2019-06-20T08:11:08.975Z,69.90
2019-06-20T08:13:39.167Z,68.90
2019-06-20T08:16:09.486Z,65.40
2019-06-20T08:18:39.588Z,64.10
2019-06-20T08:21:09.785Z,65.90
2019-06-20T08:23:39.913Z,66.80
2019-06-20T08:26:10.156Z,65.70
2019-06-20T08:28:40.365Z,61.40
2019-06-20T08:31:11.468Z,60.50
2019-06-20T08:33:41.625Z,60.20
2019-06-20T08:36:12.537Z,59.30
2019-06-20T08:38:42.937Z,56.30
2019-06-20T08:41:13.072Z,59.90
2019-06-20T08:43:45.513Z,58.60
2019-06-20T08:46:15.687Z,58.80
2019-06-20T08:48:45.951Z,56.60
2019-06-20T08:51:16.237Z,50.10
2019-06-20T08:53:46.864Z,54.90
2019-06-20T08:56:18.380Z,50.70
2019-06-20T08:58:50.725Z,50.40
2019-06-20T09:01:21.036Z,46.20
2019-06-20T09:03:51.160Z,48.80
2019-06-20T09:06:21.312Z,43.40
2019-06-20T09:08:53.851Z,45.30
2019-06-20T09:11:25.408Z,45.50
2019-06-20T09:13:57.265Z,49.10
2019-06-20T09:16:27.761Z,47.70
2019-06-20T09:18:58.403Z,49.40
2019-06-20T09:21:28.863Z,48.60
2019-06-20T09:24:02.444Z,42.10
2019-06-20T09:26:33.884Z,46.70
2019-06-20T09:29:04.310Z,44.50
2019-06-20T09:31:36.340Z,43.20
2019-06-20T09:34:06.493Z,42.70
2019-06-20T09:36:36.728Z,44.40
2019-06-20T09:39:10.402Z,43.00
2019-06-20T09:41:41.539Z,46.70
2019-06-20T09:44:11.668Z,45.00
2019-06-20T09:46:42.383Z,41.80
2019-06-20T09:49:12.557Z,37.30
2019-06-20T09:51:42.730Z,36.30
2019-06-20T09:54:13.373Z,38.90
2019-06-20T09:56:46.496Z,40.60
2019-06-20T09:59:27.295Z,42.10
2019-06-20T10:01:51.320Z,41.10
2019-06-20T10:04:21.837Z,42.30
2019-06-20T10:06:52.521Z,41.70
2019-06-20T10:09:26.411Z,36.20
2019-06-20T10:11:59.166Z,35.80
2019-06-20T10:14:29.786Z,36.90
2019-06-20T10:17:00.435Z,38.00
2019-06-20T10:19:31.458Z,33.40
2019-06-20T10:22:05.266Z,35.90
2019-06-20T10:24:37.133Z,38.50
2019-06-20T10:27:08.492Z,32.60
2019-06-20T10:29:39.316Z,32.10
2019-06-20T10:32:11.286Z,34.50
2019-06-20T10:34:41.710Z,35.60
2019-06-20T10:37:12.572Z,36.10
2019-06-20T10:39:44.513Z,40.50
2019-06-20T10:42:55.105Z,36.40
2019-06-20T10:45:27.199Z,37.70
2019-06-20T10:50:38.030Z,34.10
2019-06-20T10:53:09.293Z,34.50
2019-06-20T10:55:41.465Z,32.20
2019-06-20T10:58:11.985Z,34.10
2019-06-20T11:00:44.564Z,31.40
2019-06-20T11:03:15.043Z,31.50
2019-06-20T11:05:45.695Z,33.10
2019-06-20T11:08:16.348Z,30.40
2019-06-20T11:10:47.218Z,30.00
2019-06-20T11:13:19.653Z,28.50
2019-06-20T11:15:50.091Z,31.50
2019-06-20T11:18:20.767Z,30.90
2019-06-20T11:20:51.101Z,27.30
2019-06-20T11:23:21.961Z,27.60
2019-06-20T11:25:54.848Z,26.70
2019-06-20T11:28:25.201Z,26.90
2019-06-20T11:31:00.150Z,26.80
2019-06-20T11:33:30.275Z,25.80
2019-06-20T11:36:00.667Z,27.60
2019-06-20T11:38:31.211Z,28.80
2019-06-20T11:41:13.898Z,26.10
2019-06-20T11:43:51.173Z,24.90
2019-06-20T11:46:18.638Z,28.40
2019-06-20T11:48:49.082Z,29.50
2019-06-20T11:51:20.123Z,27.70
2019-06-20T11:53:51.534Z,26.80
2019-06-20T11:59:20.548Z,26.60
2019-06-20T12:01:53.739Z,26.00
2019-06-20T12:04:24.227Z,26.10
2019-06-20T12:06:58.686Z,26.80
2019-06-20T12:09:29.622Z,26.10
2019-06-20T12:12:00.102Z,30.50
2019-06-20T12:14:34.259Z,28.10
2019-06-20T12:17:11.161Z,26.90
2019-06-20T12:19:42.472Z,25.70
2019-06-20T12:22:12.981Z,29.30
2019-06-20T12:24:44.493Z,32.00
2019-06-20T12:27:17.335Z,30.40
2019-06-20T12:29:49.379Z,27.60
2019-06-20T12:32:22.444Z,28.20
2019-06-20T12:34:52.927Z,31.50
2019-06-20T12:41:08.097Z,28.60
2019-06-20T12:43:39.053Z,29.40
2019-06-20T12:46:11.819Z,30.00
2019-06-20T12:48:46.948Z,30.20
2019-06-20T12:51:17.929Z,29.20
2019-06-20T12:53:50.826Z,31.50
2019-06-20T12:56:20.812Z,31.20
2019-06-20T12:58:51.212Z,32.60
2019-06-20T13:01:34.792Z,31.90
2019-06-20T13:03:53.622Z,33.40
2019-06-20T13:06:29.605Z,33.30
2019-06-20T13:09:00.018Z,34.90
2019-06-20T13:11:32.861Z,35.00
2019-06-20T13:14:03.455Z,34.90
2019-06-20T13:16:35.926Z,34.40
2019-06-20T13:19:06.545Z,36.50
2019-06-20T13:21:38.805Z,34.60
2019-06-20T13:24:10.025Z,37.50
2019-06-20T13:26:42.375Z,35.20
2019-06-20T13:29:16.304Z,35.20
2019-06-20T13:32:01.996Z,34.40
2019-06-20T13:34:19.795Z,35.20
2019-06-20T13:36:52.385Z,36.20
2019-06-20T13:39:28.072Z,37.90
2019-06-20T13:41:58.849Z,34.60
2019-06-20T13:44:29.416Z,35.90
2019-06-20T13:46:59.850Z,34.70
2019-06-20T13:49:30.303Z,34.30
2019-06-20T13:52:03.471Z,33.10
2019-06-20T13:54:34.584Z,33.00
2019-06-20T13:57:07.171Z,28.10
2019-06-20T13:59:37.651Z,26.00
2019-06-20T14:02:11.114Z,26.30
2019-06-20T14:04:42.777Z,26.70
2019-06-20T14:07:15.672Z,24.50
2019-06-20T14:09:48.849Z,26.20
2019-06-20T14:12:19.651Z,26.40
2019-06-20T14:14:50.371Z,25.50
2019-06-20T14:17:23.164Z,22.90
2019-06-20T14:19:53.465Z,21.10
2019-06-20T14:22:23.824Z,20.20
2019-06-20T14:24:55.471Z,16.60
2019-06-20T14:27:26.176Z,14.10
2019-06-20T14:30:02.791Z,11.70
2019-06-20T14:32:37.454Z,8.90
2019-06-20T14:35:08.044Z,9.00
2019-06-20T14:37:38.576Z,8.20
2019-06-20T14:40:11.932Z,7.10
2019-06-20T14:42:47.805Z,8.40
2019-06-20T14:45:18.037Z,9.80
2019-06-20T14:47:52.729Z,12.00
2019-06-20T14:50:25.078Z,12.50
2019-06-20T14:52:55.301Z,13.70
2019-06-20T14:55:25.412Z,14.50
2019-06-20T14:57:55.634Z,14.00
2019-06-20T15:00:26.468Z,13.50
2019-06-20T15:02:58.578Z,10.80
2019-06-20T15:05:28.356Z,8.20
2019-06-20T15:07:58.418Z,8.30
2019-06-20T15:10:28.745Z,7.30
2019-06-20T15:13:01.667Z,5.10
2019-06-20T15:15:31.770Z,2.30
2019-06-20T15:18:01.886Z,1.00
2019-06-20T15:20:40.652Z,1.00
2019-06-20T15:23:11.398Z,1.00
2019-06-20T15:25:43.043Z,1.00
2019-06-20T15:28:13.373Z,1.00
2019-06-20T15:30:47.061Z,1.00
2019-06-20T15:33:17.586Z,1.00
2019-06-20T15:35:49.246Z,1.00
2019-06-20T15:38:19.895Z,1.00
2019-06-20T15:40:51.551Z,1.00
2019-06-20T15:43:21.896Z,1.00
2019-06-20T15:45:58.379Z,2.10
2019-06-20T15:48:32.894Z,2.50
2019-06-20T15:51:07.627Z,1.00
2019-06-20T15:53:37.741Z,1.60
2019-06-20T15:56:12.871Z,1.00
2019-06-20T15:58:44.370Z,1.00
2019-06-20T16:01:14.540Z,1.00
2019-06-20T16:03:47.671Z,1.00
2019-06-20T16:06:17.860Z,2.10
2019-06-20T16:08:49.182Z,1.00
2019-06-20T16:11:20.236Z,1.30
2019-06-20T16:14:12.790Z,1.00
2019-06-20T16:16:42.891Z,1.00
2019-06-20T16:19:13.007Z,1.00
2019-06-20T16:21:43.128Z,1.00
2019-06-20T16:24:13.250Z,1.00
2019-06-20T16:26:43.341Z,1.00
2019-06-20T16:29:13.487Z,1.00
2019-06-20T16:31:43.567Z,1.20
2019-06-20T16:34:13.670Z,2.60
2019-06-20T16:36:45.006Z,2.10
2019-06-20T16:39:15.193Z,1.40
2019-06-20T16:41:45.284Z,1.10
2019-06-20T16:44:21.998Z,1.00
2019-06-20T16:46:52.173Z,1.00
2019-06-20T16:49:22.996Z,1.00
2019-06-20T16:51:53.075Z,1.00
2019-06-20T16:54:23.186Z,1.00
2019-06-20T16:56:54.029Z,1.00
2019-06-20T16:59:24.163Z,1.00
2019-06-20T17:01:54.352Z,1.00
2019-06-20T17:04:24.449Z,1.80
2019-06-20T17:06:54.819Z,3.80
2019-06-20T17:09:24.994Z,6.20
2019-06-20T17:11:55.227Z,9.00
2019-06-20T17:14:24.675Z,10.40
2019-06-20T17:16:55.722Z,10.90
2019-06-20T17:19:26.105Z,13.60
2019-06-20T17:21:56.251Z,13.70
2019-06-20T17:24:26.597Z,14.90
2019-06-20T17:26:56.809Z,15.30
2019-06-20T17:29:26.963Z,15.90
2019-06-20T17:31:57.648Z,17.10
2019-06-20T17:34:27.940Z,19.90
2019-06-20T17:36:58.097Z,19.40
2019-06-20T17:39:28.298Z,21.20
2019-06-20T17:41:58.867Z,22.10
2019-06-20T17:44:29.198Z,21.90
2019-06-20T17:46:59.456Z,20.00
2019-06-20T17:49:29.607Z,19.90
2019-06-20T17:51:59.883Z,20.90
2019-06-20T17:54:30.026Z,22.40
2019-06-20T17:57:00.677Z,22.80
2019-06-20T17:59:30.845Z,24.70
2019-06-20T18:02:01.125Z,25.70
2019-06-20T18:04:31.302Z,24.10
2019-06-20T18:07:02.217Z,25.00
2019-06-20T18:09:34.060Z,23.50
2019-06-20T18:12:04.587Z,22.70
2019-06-20T18:14:36.544Z,23.40
2019-06-20T18:17:06.698Z,23.90
2019-06-20T18:19:36.978Z,25.40
2019-06-20T18:22:07.243Z,25.70
2019-06-20T18:24:37.393Z,27.60
2019-06-20T18:27:07.513Z,27.80
2019-06-20T18:29:37.644Z,27.30
2019-06-20T18:32:07.905Z,27.50
2019-06-20T18:34:38.028Z,28.10
2019-06-20T18:37:08.248Z,27.20
2019-06-20T18:39:41.226Z,29.00
2019-06-20T18:42:11.494Z,28.60
2019-06-20T18:44:41.948Z,29.20
2019-06-20T18:47:14.206Z,29.00
2019-06-20T18:49:44.784Z,30.60
2019-06-20T18:52:15.024Z,34.20
2019-06-20T18:55:14.007Z,35.20
2019-06-20T18:57:44.436Z,36.50
2019-06-20T19:00:14.970Z,36.90
2019-06-20T19:02:49.524Z,40.50
2019-06-20T19:05:22.465Z,41.30
2019-06-20T19:07:59.109Z,44.20
2019-06-20T19:10:33.522Z,46.00
2019-06-20T19:13:04.609Z,46.00
2019-06-20T19:15:36.504Z,46.60
2019-06-20T19:18:07.461Z,44.30
2019-06-20T19:20:39.465Z,44.00
2019-06-20T19:23:10.731Z,43.90
2019-06-20T19:25:41.139Z,47.30
2019-06-20T19:28:11.976Z,49.20
2019-06-20T19:30:50.380Z,51.10
2019-06-20T19:33:20.842Z,50.20
2019-06-20T19:35:52.641Z,54.50
2019-06-20T19:38:23.027Z,56.80
2019-06-20T19:40:54.877Z,54.10
2019-06-20T19:43:24.965Z,56.10
2019-06-20T19:45:55.150Z,55.30
2019-06-20T19:48:27.403Z,55.80
2019-06-20T19:50:57.545Z,52.60
2019-06-20T19:53:28.010Z,49.00
2019-06-20T19:55:59.181Z,49.80
2019-06-20T19:58:29.309Z,52.80
2019-06-20T20:00:59.442Z,53.50
2019-06-20T20:03:31.848Z,54.30
2019-06-20T20:06:02.114Z,54.00
2019-06-20T20:08:32.273Z,57.70
2019-06-20T20:11:02.581Z,61.00
2019-06-20T20:13:32.707Z,64.10
2019-06-20T20:16:03.669Z,69.40
2019-06-20T20:18:33.852Z,77.50
2019-06-20T20:21:05.095Z,80.90
2019-06-20T20:23:36.888Z,75.90
2019-06-20T20:26:08.819Z,84.50
2019-06-20T20:28:38.770Z,82.30
2019-06-20T20:31:11.098Z,86.40
2019-06-20T20:33:41.505Z,87.30
2019-06-20T20:36:24.398Z,86.90
2019-06-20T20:38:43.885Z,90.00
2019-06-20T20:41:14.175Z,92.60
2019-06-20T20:43:45.415Z,94.30
2019-06-20T20:46:18.110Z,92.90
2019-06-20T20:48:48.867Z,92.10
2019-06-20T20:51:19.782Z,90.80
2019-06-20T20:53:50.018Z,93.20
2019-06-20T20:56:20.259Z,96.60
2019-06-20T20:58:50.457Z,96.00
2019-06-20T21:01:26.847Z,96.80
2019-06-20T21:03:56.998Z,96.30
2019-06-20T21:06:27.147Z,97.40
2019-06-20T21:08:57.405Z,99.20
2019-06-20T21:11:27.732Z,98.90
2019-06-20T21:13:57.996Z,99.10
2019-06-20T21:16:28.346Z,98.00
2019-06-20T21:19:01.272Z,97.60
2019-06-20T21:21:31.357Z,97.50
2019-06-20T21:24:01.649Z,97.10
2019-06-20T21:26:47.992Z,96.40
2019-06-20T21:29:04.309Z,96.40
2019-06-20T21:31:38.489Z,96.40
2019-06-20T21:34:09.528Z,97.00
2019-06-20T21:36:39.991Z,95.30
2019-06-20T21:39:10.122Z,94.00
2019-06-20T21:41:40.330Z,95.90
2019-06-20T21:44:10.776Z,94.80
2019-06-20T21:46:42.384Z,94.00
2019-06-20T21:49:12.846Z,95.80
2019-06-20T21:51:46.064Z,97.70
2019-06-20T21:54:16.198Z,98.20
2019-06-20T21:56:46.332Z,98.30
2019-06-20T21:59:16.641Z,97.90
2019-06-20T22:01:48.519Z,95.90
2019-06-20T22:04:18.912Z,96.60
2019-06-20T22:06:50.624Z,94.10
2019-06-20T22:09:20.835Z,94.80
2019-06-20T22:11:51.037Z,95.40
2019-06-20T22:14:21.130Z,94.40
2019-06-20T22:16:53.695Z,96.20
2019-06-20T22:19:23.939Z,95.10
2019-06-20T22:21:54.455Z,93.80
2019-06-20T22:24:25.067Z,96.30
2019-06-20T22:26:55.157Z,95.80
2019-06-20T22:29:25.616Z,95.10
2019-06-20T22:31:55.732Z,96.60
2019-06-20T22:34:25.883Z,96.50
2019-06-20T22:36:56.720Z,96.60
2019-06-20T22:39:26.856Z,97.60
2019-06-20T22:41:56.953Z,96.50
2019-06-20T22:44:27.056Z,96.50
2019-06-20T22:46:57.172Z,96.40
2019-06-20T22:49:27.177Z,98.10
2019-06-20T22:51:57.316Z,97.90
2019-06-20T22:54:27.403Z,97.90
2019-06-20T22:56:57.512Z,98.50
2019-06-20T22:59:27.612Z,97.10
2019-06-20T23:01:57.730Z,96.10
2019-06-20T23:04:31.780Z,96.00
2019-06-20T23:07:01.893Z,96.10
2019-06-20T23:09:32.025Z,95.30
2019-06-20T23:12:02.456Z,94.40
2019-06-20T23:14:32.603Z,93.20
2019-06-20T23:17:02.731Z,93.10
2019-06-20T23:19:34.964Z,95.80
2019-06-20T23:22:05.044Z,95.20
2019-06-20T23:24:35.315Z,95.20
2019-06-20T23:27:05.397Z,95.30
2019-06-20T23:29:35.496Z,94.10
2019-06-20T23:32:07.911Z,94.90
2019-06-20T23:34:38.344Z,94.40
2019-06-20T23:37:12.778Z,92.60
2019-06-20T23:39:40.429Z,91.10
2019-06-20T23:42:10.524Z,91.50
2019-06-20T23:44:42.098Z,92.80
2019-06-20T23:47:12.751Z,93.40
2019-06-20T23:49:42.841Z,94.40
2019-06-20T23:52:17.392Z,95.60
2019-06-20T23:54:47.492Z,96.20
2019-06-20T23:57:17.644Z,97.20
2019-06-20T23:59:47.843Z,96.50
